createdAt,value
2022-12-13T00:03:56.134Z,5.32
2022-12-13T00:12:05.448Z,5.65
2022-12-13T00:20:11.688Z,4.95
2022-12-13T00:28:20.375Z,4.78
2022-12-13T00:36:25.685Z,6.30
2022-12-13T00:44:34.133Z,6.90
2022-12-13T00:52:39.503Z,11.13
2022-12-13T01:00:48.312Z,9.52
2022-12-13T01:08:53.963Z,8.15
2022-12-13T01:17:01.970Z,9.55
2022-12-13T01:25:07.957Z,8.95
2022-12-13T01:33:15.986Z,8.00
2022-12-13T01:41:27.152Z,8.30
2022-12-13T01:49:35.907Z,6.53
2022-12-13T01:57:45.791Z,6.90
2022-12-13T02:06:01.860Z,7.32
2022-12-13T02:14:07.446Z,7.15
2022-12-13T02:22:23.697Z,7.90
2022-12-13T02:30:38.777Z,8.13
2022-12-13T02:38:52.729Z,5.82
2022-12-13T02:47:05.703Z,8.43
2022-12-13T02:55:21.125Z,7.75
2022-12-13T03:03:40.437Z,8.60
2022-12-13T03:12:14.166Z,6.75
2022-12-13T03:20:28.096Z,7.20
2022-12-13T03:28:33.408Z,7.82
2022-12-13T03:36:41.322Z,6.95
2022-12-13T03:44:46.719Z,7.13
2022-12-13T03:52:54.647Z,8.52
2022-12-13T04:00:59.924Z,8.70
2022-12-13T04:09:09.007Z,9.38
2022-12-13T04:17:14.459Z,9.20
2022-12-13T04:25:22.997Z,9.48
2022-12-13T04:33:28.748Z,9.90
2022-12-13T04:41:39.360Z,7.05
2022-12-13T04:49:44.668Z,8.05
2022-12-13T04:57:52.452Z,8.52
2022-12-13T05:05:57.723Z,11.95
2022-12-13T05:14:05.716Z,12.18
2022-12-13T05:22:19.766Z,12.43
2022-12-13T05:30:28.458Z,11.35
2022-12-13T05:38:34.140Z,10.63
2022-12-13T05:46:42.005Z,11.13
2022-12-13T05:54:47.333Z,9.18
2022-12-13T06:02:55.662Z,8.68
2022-12-13T06:11:11.166Z,9.32
2022-12-13T06:19:20.198Z,8.95
2022-12-13T06:27:25.509Z,8.40
2022-12-13T06:35:38.047Z,8.18
2022-12-13T06:43:48.190Z,7.40
2022-12-13T06:51:57.176Z,9.23
2022-12-13T07:00:06.225Z,11.50
2022-12-13T07:08:14.403Z,10.43
2022-12-13T07:16:30.696Z,9.73
2022-12-13T07:24:38.845Z,9.98
2022-12-13T07:32:44.137Z,8.65
2022-12-13T07:40:52.012Z,7.95
2022-12-13T07:49:01.510Z,8.98
2022-12-13T07:57:11.305Z,8.65
2022-12-13T08:05:26.704Z,8.25
2022-12-13T08:13:35.302Z,7.32
2022-12-13T08:22:02.014Z,8.57
2022-12-13T08:30:11.456Z,6.93
2022-12-13T08:38:22.481Z,6.40
2022-12-13T08:46:31.895Z,6.43
2022-12-13T08:54:38.422Z,7.00
2022-12-13T09:02:46.680Z,6.05
2022-12-13T09:11:00.072Z,6.80
2022-12-13T09:27:39.987Z,5.85
2022-12-13T09:35:48.328Z,6.15
2022-12-13T09:44:01.009Z,5.82
2022-12-13T09:52:21.374Z,6.32
2022-12-13T10:00:30.050Z,7.22
2022-12-13T10:08:43.464Z,7.07
2022-12-13T10:16:53.022Z,7.53
2022-12-13T10:25:03.918Z,7.70
2022-12-13T10:33:10.664Z,6.80
2022-12-13T10:41:34.953Z,7.05
2022-12-13T10:49:50.551Z,7.15
2022-12-13T10:58:10.225Z,7.45
2022-12-13T11:06:19.673Z,7.43
2022-12-13T11:14:31.869Z,7.80
2022-12-13T11:22:40.398Z,8.10
2022-12-13T11:31:01.740Z,8.10
2022-12-13T11:39:19.590Z,9.55
2022-12-13T11:47:30.762Z,8.55
2022-12-13T11:55:41.967Z,8.15
2022-12-13T12:03:54.390Z,8.68
2022-12-13T12:12:05.782Z,8.70
2022-12-13T12:20:23.932Z,8.60
2022-12-13T12:28:44.326Z,9.68
2022-12-13T12:37:03.428Z,8.25
2022-12-13T12:45:55.349Z,13.02
2022-12-13T12:54:02.234Z,17.33
2022-12-13T13:02:18.991Z,14.57
2022-12-13T13:10:27.729Z,13.77
2022-12-13T13:18:49.399Z,10.32
2022-12-13T13:26:59.339Z,10.18
2022-12-13T13:35:37.093Z,10.20
2022-12-13T13:43:45.426Z,11.77
2022-12-13T13:52:26.799Z,11.80
2022-12-13T14:00:54.395Z,12.35
2022-12-13T14:09:29.398Z,13.70
2022-12-13T14:18:08.498Z,14.25
2022-12-13T14:26:24.992Z,15.88
2022-12-13T14:34:35.765Z,15.73
2022-12-13T14:42:41.051Z,15.55
2022-12-13T14:50:52.293Z,17.50
2022-12-13T14:58:59.462Z,16.15
2022-12-13T15:07:11.532Z,17.17
2022-12-13T15:15:30.156Z,17.43
2022-12-13T15:23:48.625Z,17.75
2022-12-13T15:32:09.197Z,16.00
2022-12-13T15:40:20.309Z,14.10
2022-12-13T15:48:32.186Z,20.98
2022-12-13T15:57:01.171Z,22.92
2022-12-13T16:05:13.187Z,19.95
2022-12-13T16:13:31.847Z,19.38
2022-12-13T16:21:41.234Z,24.02
2022-12-13T16:29:52.794Z,21.45
2022-12-13T16:37:59.428Z,23.27
2022-12-13T16:47:11.503Z,21.70
2022-12-13T16:54:36.173Z,23.63
2022-12-13T17:02:44.996Z,24.60
2022-12-13T17:10:58.113Z,26.58
2022-12-13T17:19:06.500Z,29.90
2022-12-13T17:27:11.921Z,27.77
2022-12-13T17:35:20.357Z,30.05
2022-12-13T17:43:34.912Z,45.53
2022-12-13T17:51:43.748Z,48.70
2022-12-13T17:59:57.486Z,39.20
2022-12-13T18:08:06.044Z,41.10
2022-12-13T18:16:13.606Z,35.85
2022-12-13T18:24:21.620Z,33.88
2022-12-13T18:32:26.977Z,38.72
2022-12-13T18:40:35.024Z,38.35
2022-12-13T18:48:41.496Z,44.63
2022-12-13T18:56:50.139Z,43.10
2022-12-13T19:04:58.540Z,38.60
2022-12-13T19:13:07.115Z,35.90
2022-12-13T19:21:23.553Z,56.03
2022-12-13T19:29:32.573Z,45.53
2022-12-13T19:37:39.680Z,43.00
2022-12-13T19:45:50.961Z,46.80
2022-12-13T19:53:56.529Z,66.57
2022-12-13T20:02:12.241Z,39.92
2022-12-13T20:10:18.495Z,47.67
2022-12-13T20:18:27.533Z,52.05
2022-12-13T20:26:34.590Z,41.28
2022-12-13T20:34:42.869Z,58.15
2022-12-13T20:42:48.437Z,40.95
2022-12-13T20:51:05.166Z,50.30
2022-12-13T20:59:12.026Z,35.38
2022-12-13T21:07:40.205Z,36.42
2022-12-13T21:15:46.759Z,32.60
2022-12-13T21:23:55.055Z,34.28
2022-12-13T21:32:00.413Z,32.67
2022-12-13T21:40:11.554Z,30.83
2022-12-13T21:48:16.908Z,31.52
2022-12-13T21:56:38.706Z,30.17
2022-12-13T22:04:48.674Z,29.90
2022-12-13T22:12:58.829Z,32.42
2022-12-13T22:21:04.160Z,29.38
2022-12-13T22:29:15.376Z,28.77
2022-12-13T22:37:20.731Z,24.83
2022-12-13T22:45:28.975Z,25.38
2022-12-13T22:53:34.360Z,20.15
2022-12-13T23:01:43.427Z,21.90
2022-12-13T23:09:52.850Z,19.67
2022-12-13T23:18:00.797Z,17.30
2022-12-13T23:26:11.957Z,20.02
2022-12-13T23:34:20.182Z,19.85
2022-12-13T23:42:25.518Z,21.10
2022-12-13T23:50:33.491Z,19.00
2022-12-13T23:58:40.869Z,15.90
